sensor_id;sensor_type;location;lat;lon;timestamp;pressure;altitude;pressure_sealevel;temperature;humidity
11499;BME280;5806;48.748;9.278;2023-06-05T00:01:33;101389.55;;;16.09;50.10
11499;BME280;5806;48.748;9.278;2023-06-05T00:04:01;101389.16;;;15.98;50.77
11499;BME280;5806;48.748;9.278;2023-06-05T00:06:30;101390.69;;;15.84;50.52
11499;BME280;5806;48.748;9.278;2023-06-05T00:08:58;101391.34;;;15.93;50.60
11499;BME280;5806;48.748;9.278;2023-06-05T00:11:25;101387.28;;;15.74;50.11
11499;BME280;5806;48.748;9.278;2023-06-05T00:13:53;101386.34;;;15.90;50.27
11499;BME280;5806;48.748;9.278;2023-06-05T00:16:21;101393.22;;;15.88;50.01
11499;BME280;5806;48.748;9.278;2023-06-05T00:18:48;101398.20;;;15.88;49.59
11499;BME280;5806;48.748;9.278;2023-06-05T00:21:16;101397.80;;;15.77;50.08
11499;BME280;5806;48.748;9.278;2023-06-05T00:23:46;101396.39;;;15.75;49.35
11499;BME280;5806;48.748;9.278;2023-06-05T00:26:13;101397.00;;;15.82;49.82
11499;BME280;5806;48.748;9.278;2023-06-05T00:28:41;101403.19;;;15.67;50.47
11499;BME280;5806;48.748;9.278;2023-06-05T00:31:09;101406.64;;;15.55;50.49
11499;BME280;5806;48.748;9.278;2023-06-05T00:33:36;101403.14;;;15.62;50.65
11499;BME280;5806;48.748;9.278;2023-06-05T00:36:04;101409.06;;;15.49;50.62
11499;BME280;5806;48.748;9.278;2023-06-05T00:38:33;101406.31;;;15.49;50.55
11499;BME280;5806;48.748;9.278;2023-06-05T00:41:01;101399.47;;;15.54;50.17
11499;BME280;5806;48.748;9.278;2023-06-05T00:43:29;101397.37;;;15.40;50.82
11499;BME280;5806;48.748;9.278;2023-06-05T00:46:02;101397.78;;;15.32;51.06
11499;BME280;5806;48.748;9.278;2023-06-05T00:48:32;101400.59;;;15.15;52.02
11499;BME280;5806;48.748;9.278;2023-06-05T00:51:00;101409.45;;;15.17;51.92
11499;BME280;5806;48.748;9.278;2023-06-05T00:53:28;101404.42;;;15.12;51.44
11499;BME280;5806;48.748;9.278;2023-06-05T00:55:57;101404.77;;;14.96;53.05
11499;BME280;5806;48.748;9.278;2023-06-05T00:58:26;101398.22;;;15.02;52.68
11499;BME280;5806;48.748;9.278;2023-06-05T01:00:57;101398.78;;;15.02;52.47
11499;BME280;5806;48.748;9.278;2023-06-05T01:03:25;101397.06;;;14.98;52.30
11499;BME280;5806;48.748;9.278;2023-06-05T01:05:55;101395.56;;;14.88;52.41
11499;BME280;5806;48.748;9.278;2023-06-05T01:08:24;101401.26;;;14.82;52.04
11499;BME280;5806;48.748;9.278;2023-06-05T01:10:54;101402.16;;;14.68;53.26
11499;BME280;5806;48.748;9.278;2023-06-05T01:13:24;101400.56;;;14.72;52.80
11499;BME280;5806;48.748;9.278;2023-06-05T01:15:54;101400.41;;;14.81;52.26
11499;BME280;5806;48.748;9.278;2023-06-05T01:18:24;101403.46;;;14.63;53.26
11499;BME280;5806;48.748;9.278;2023-06-05T01:20:51;101406.22;;;14.63;53.50
11499;BME280;5806;48.748;9.278;2023-06-05T01:23:21;101406.31;;;14.70;53.53
11499;BME280;5806;48.748;9.278;2023-06-05T01:25:50;101409.28;;;14.66;53.90
11499;BME280;5806;48.748;9.278;2023-06-05T01:28:28;101407.02;;;14.80;53.23
11499;BME280;5806;48.748;9.278;2023-06-05T01:31:08;101402.25;;;14.75;52.89
11499;BME280;5806;48.748;9.278;2023-06-05T01:33:38;101397.99;;;14.65;53.45
11499;BME280;5806;48.748;9.278;2023-06-05T01:36:13;101390.76;;;14.43;53.86
11499;BME280;5806;48.748;9.278;2023-06-05T01:38:42;101391.28;;;14.59;53.76
11499;BME280;5806;48.748;9.278;2023-06-05T01:41:11;101392.14;;;14.43;54.87
11499;BME280;5806;48.748;9.278;2023-06-05T01:43:40;101388.28;;;14.27;55.00
11499;BME280;5806;48.748;9.278;2023-06-05T01:46:08;101392.41;;;14.27;54.83
11499;BME280;5806;48.748;9.278;2023-06-05T01:48:38;101387.22;;;14.14;55.01
11499;BME280;5806;48.748;9.278;2023-06-05T01:51:06;101380.84;;;14.25;54.64
11499;BME280;5806;48.748;9.278;2023-06-05T01:53:34;101384.16;;;14.27;54.36
11499;BME280;5806;48.748;9.278;2023-06-05T01:56:02;101382.81;;;14.30;54.40
11499;BME280;5806;48.748;9.278;2023-06-05T01:58:30;101391.55;;;14.10;55.08
11499;BME280;5806;48.748;9.278;2023-06-05T02:00:58;101389.09;;;13.95;55.78
11499;BME280;5806;48.748;9.278;2023-06-05T02:03:26;101389.58;;;13.92;56.49
11499;BME280;5806;48.748;9.278;2023-06-05T02:05:54;101386.53;;;14.07;55.60
11499;BME280;5806;48.748;9.278;2023-06-05T02:08:22;101389.66;;;13.97;56.50
11499;BME280;5806;48.748;9.278;2023-06-05T02:10:50;101381.08;;;13.93;56.29
11499;BME280;5806;48.748;9.278;2023-06-05T02:13:19;101386.37;;;13.97;56.17
11499;BME280;5806;48.748;9.278;2023-06-05T02:15:48;101384.77;;;13.85;56.86
11499;BME280;5806;48.748;9.278;2023-06-05T02:18:17;101386.21;;;14.04;56.31
11499;BME280;5806;48.748;9.278;2023-06-05T02:20:45;101378.28;;;14.07;55.68
11499;BME280;5806;48.748;9.278;2023-06-05T02:23:14;101376.75;;;13.97;56.20
11499;BME280;5806;48.748;9.278;2023-06-05T02:25:42;101379.22;;;13.82;56.61
11499;BME280;5806;48.748;9.278;2023-06-05T02:28:09;101375.34;;;13.81;56.59
11499;BME280;5806;48.748;9.278;2023-06-05T02:30:37;101380.35;;;13.70;57.74
11499;BME280;5806;48.748;9.278;2023-06-05T02:33:05;101371.12;;;13.76;57.18
11499;BME280;5806;48.748;9.278;2023-06-05T02:35:34;101377.08;;;13.70;57.35
11499;BME280;5806;48.748;9.278;2023-06-05T02:38:02;101379.70;;;13.79;57.05
11499;BME280;5806;48.748;9.278;2023-06-05T02:40:31;101382.53;;;13.68;57.91
11499;BME280;5806;48.748;9.278;2023-06-05T02:42:59;101378.56;;;13.61;57.57
11499;BME280;5806;48.748;9.278;2023-06-05T02:45:27;101375.05;;;13.66;57.71
11499;BME280;5806;48.748;9.278;2023-06-05T02:47:55;101381.53;;;13.46;58.42
11499;BME280;5806;48.748;9.278;2023-06-05T02:50:22;101369.82;;;13.50;58.41
11499;BME280;5806;48.748;9.278;2023-06-05T02:52:50;101370.11;;;13.65;57.85
11499;BME280;5806;48.748;9.278;2023-06-05T02:55:17;101365.05;;;13.46;58.25
11499;BME280;5806;48.748;9.278;2023-06-05T02:57:45;101368.75;;;13.37;58.77
11499;BME280;5806;48.748;9.278;2023-06-05T03:00:14;101371.34;;;13.44;58.43
11499;BME280;5806;48.748;9.278;2023-06-05T03:02:46;101374.72;;;13.34;58.77
11499;BME280;5806;48.748;9.278;2023-06-05T03:05:15;101375.42;;;13.41;58.56
11499;BME280;5806;48.748;9.278;2023-06-05T03:07:44;101372.87;;;13.37;58.36
11499;BME280;5806;48.748;9.278;2023-06-05T03:10:12;101368.84;;;13.28;58.49
11499;BME280;5806;48.748;9.278;2023-06-05T03:12:39;101363.18;;;13.21;58.58
11499;BME280;5806;48.748;9.278;2023-06-05T03:15:07;101364.30;;;13.34;57.97
11499;BME280;5806;48.748;9.278;2023-06-05T03:17:36;101365.78;;;13.13;58.77
11499;BME280;5806;48.748;9.278;2023-06-05T03:20:03;101360.33;;;13.02;58.85
11499;BME280;5806;48.748;9.278;2023-06-05T03:22:33;101357.20;;;13.10;58.23
11499;BME280;5806;48.748;9.278;2023-06-05T03:25:00;101359.48;;;13.01;58.50
11499;BME280;5806;48.748;9.278;2023-06-05T03:27:28;101362.28;;;13.04;58.90
11499;BME280;5806;48.748;9.278;2023-06-05T03:29:56;101360.55;;;12.89;58.88
11499;BME280;5806;48.748;9.278;2023-06-05T03:32:25;101355.85;;;12.87;59.12
11499;BME280;5806;48.748;9.278;2023-06-05T03:34:52;101365.66;;;12.97;58.82
11499;BME280;5806;48.748;9.278;2023-06-05T03:37:21;101363.08;;;13.02;58.45
11499;BME280;5806;48.748;9.278;2023-06-05T03:39:49;101362.84;;;12.80;59.11
11499;BME280;5806;48.748;9.278;2023-06-05T03:42:16;101364.98;;;12.78;59.41
11499;BME280;5806;48.748;9.278;2023-06-05T03:44:44;101365.88;;;12.81;58.89
11499;BME280;5806;48.748;9.278;2023-06-05T03:47:12;101362.66;;;12.84;59.07
11499;BME280;5806;48.748;9.278;2023-06-05T03:49:42;101375.49;;;12.81;59.54
11499;BME280;5806;48.748;9.278;2023-06-05T03:52:11;101371.00;;;12.89;58.95
11499;BME280;5806;48.748;9.278;2023-06-05T03:54:40;101370.80;;;12.79;59.33
11499;BME280;5806;48.748;9.278;2023-06-05T03:57:11;101372.16;;;12.68;59.56
11499;BME280;5806;48.748;9.278;2023-06-05T03:59:40;101371.16;;;12.60;60.01
11499;BME280;5806;48.748;9.278;2023-06-05T04:02:08;101369.10;;;12.78;59.83
11499;BME280;5806;48.748;9.278;2023-06-05T04:04:35;101365.09;;;12.83;59.74
11499;BME280;5806;48.748;9.278;2023-06-05T04:07:03;101372.45;;;12.69;60.02
11499;BME280;5806;48.748;9.278;2023-06-05T04:09:32;101367.97;;;12.77;59.46
11499;BME280;5806;48.748;9.278;2023-06-05T04:11:59;101371.69;;;12.71;60.07
11499;BME280;5806;48.748;9.278;2023-06-05T04:14:27;101374.38;;;12.68;60.31
11499;BME280;5806;48.748;9.278;2023-06-05T04:16:54;101372.16;;;12.68;60.36
11499;BME280;5806;48.748;9.278;2023-06-05T04:19:22;101382.84;;;12.67;60.36
11499;BME280;5806;48.748;9.278;2023-06-05T04:21:49;101378.68;;;12.64;60.69
11499;BME280;5806;48.748;9.278;2023-06-05T04:24:17;101380.52;;;12.38;61.50
11499;BME280;5806;48.748;9.278;2023-06-05T04:26:45;101380.17;;;12.35;61.43
11499;BME280;5806;48.748;9.278;2023-06-05T04:29:14;101386.56;;;12.38;61.78
11499;BME280;5806;48.748;9.278;2023-06-05T04:31:46;101384.81;;;12.34;62.12
11499;BME280;5806;48.748;9.278;2023-06-05T04:34:17;101386.30;;;12.62;61.68
11499;BME280;5806;48.748;9.278;2023-06-05T04:36:45;101379.08;;;12.70;61.24
11499;BME280;5806;48.748;9.278;2023-06-05T04:39:14;101380.59;;;12.75;61.39
11499;BME280;5806;48.748;9.278;2023-06-05T04:41:44;101383.86;;;12.75;61.30
11499;BME280;5806;48.748;9.278;2023-06-05T04:44:13;101385.61;;;12.55;62.57
11499;BME280;5806;48.748;9.278;2023-06-05T04:46:43;101382.49;;;12.52;63.30
11499;BME280;5806;48.748;9.278;2023-06-05T04:49:12;101385.67;;;12.58;63.14
11499;BME280;5806;48.748;9.278;2023-06-05T04:51:40;101384.99;;;12.76;62.65
11499;BME280;5806;48.748;9.278;2023-06-05T04:54:10;101383.80;;;12.72;62.36
11499;BME280;5806;48.748;9.278;2023-06-05T04:56:38;101386.23;;;12.83;62.43
11499;BME280;5806;48.748;9.278;2023-06-05T04:59:06;101381.27;;;12.94;62.59
11499;BME280;5806;48.748;9.278;2023-06-05T05:01:33;101380.84;;;12.99;62.55
11499;BME280;5806;48.748;9.278;2023-06-05T05:04:01;101386.16;;;13.03;62.06
11499;BME280;5806;48.748;9.278;2023-06-05T05:06:29;101380.18;;;13.06;62.61
11499;BME280;5806;48.748;9.278;2023-06-05T05:08:57;101384.48;;;13.02;63.12
11499;BME280;5806;48.748;9.278;2023-06-05T05:11:25;101383.35;;;13.01;63.36
11499;BME280;5806;48.748;9.278;2023-06-05T05:13:53;101390.22;;;13.12;63.51
11499;BME280;5806;48.748;9.278;2023-06-05T05:16:21;101384.67;;;13.24;63.36
11499;BME280;5806;48.748;9.278;2023-06-05T05:18:48;101385.20;;;13.23;63.32
11499;BME280;5806;48.748;9.278;2023-06-05T05:21:16;101393.45;;;13.23;63.60
11499;BME280;5806;48.748;9.278;2023-06-05T05:23:44;101386.08;;;13.38;63.21
11499;BME280;5806;48.748;9.278;2023-06-05T05:26:12;101386.66;;;13.40;63.56
11499;BME280;5806;48.748;9.278;2023-06-05T05:28:40;101388.48;;;13.48;63.77
11499;BME280;5806;48.748;9.278;2023-06-05T05:31:09;101392.70;;;13.53;63.67
11499;BME280;5806;48.748;9.278;2023-06-05T05:33:36;101393.48;;;13.65;63.67
11499;BME280;5806;48.748;9.278;2023-06-05T05:36:04;101391.11;;;13.71;64.12
11499;BME280;5806;48.748;9.278;2023-06-05T05:38:31;101393.77;;;13.80;63.99
11499;BME280;5806;48.748;9.278;2023-06-05T05:40:59;101390.09;;;13.75;64.47
11499;BME280;5806;48.748;9.278;2023-06-05T05:43:26;101392.03;;;13.91;64.00
11499;BME280;5806;48.748;9.278;2023-06-05T05:45:54;101390.05;;;14.03;63.76
11499;BME280;5806;48.748;9.278;2023-06-05T05:48:21;101386.91;;;14.27;62.99
11499;BME280;5806;48.748;9.278;2023-06-05T05:50:49;101390.13;;;14.38;62.85
11499;BME280;5806;48.748;9.278;2023-06-05T05:53:17;101388.63;;;14.66;59.64
11499;BME280;5806;48.748;9.278;2023-06-05T05:55:45;101392.47;;;14.84;58.91
11499;BME280;5806;48.748;9.278;2023-06-05T05:58:12;101393.63;;;14.88;58.47
11499;BME280;5806;48.748;9.278;2023-06-05T06:00:39;101389.87;;;14.95;59.60
11499;BME280;5806;48.748;9.278;2023-06-05T06:03:07;101391.22;;;14.92;59.02
11499;BME280;5806;48.748;9.278;2023-06-05T06:05:34;101385.13;;;15.12;58.51
11499;BME280;5806;48.748;9.278;2023-06-05T06:08:03;101386.08;;;15.01;58.60
11499;BME280;5806;48.748;9.278;2023-06-05T06:10:31;101388.83;;;15.01;59.85
11499;BME280;5806;48.748;9.278;2023-06-05T06:12:59;101395.27;;;15.09;59.18
11499;BME280;5806;48.748;9.278;2023-06-05T06:15:26;101390.62;;;15.31;57.62
11499;BME280;5806;48.748;9.278;2023-06-05T06:17:54;101386.76;;;15.32;57.21
11499;BME280;5806;48.748;9.278;2023-06-05T06:20:21;101398.09;;;15.54;56.87
11499;BME280;5806;48.748;9.278;2023-06-05T06:22:49;101397.86;;;15.58;58.18
11499;BME280;5806;48.748;9.278;2023-06-05T06:25:19;101396.27;;;15.65;56.73
11499;BME280;5806;48.748;9.278;2023-06-05T06:27:48;101395.41;;;15.62;57.99
11499;BME280;5806;48.748;9.278;2023-06-05T06:30:16;101392.95;;;15.63;58.71
11499;BME280;5806;48.748;9.278;2023-06-05T06:32:43;101386.16;;;15.73;57.78
11499;BME280;5806;48.748;9.278;2023-06-05T06:35:11;101384.94;;;15.88;57.89
11499;BME280;5806;48.748;9.278;2023-06-05T06:37:41;101390.02;;;16.01;57.25
11499;BME280;5806;48.748;9.278;2023-06-05T06:40:08;101391.62;;;16.26;56.24
11499;BME280;5806;48.748;9.278;2023-06-05T06:42:40;101396.72;;;16.39;55.76
11499;BME280;5806;48.748;9.278;2023-06-05T06:45:07;101395.87;;;16.72;55.17
11499;BME280;5806;48.748;9.278;2023-06-05T06:47:35;101394.55;;;16.77;55.11
11499;BME280;5806;48.748;9.278;2023-06-05T06:50:03;101397.62;;;16.88;54.11
11499;BME280;5806;48.748;9.278;2023-06-05T06:52:31;101405.37;;;16.86;54.15
11499;BME280;5806;48.748;9.278;2023-06-05T06:54:58;101399.11;;;17.06;53.82
11499;BME280;5806;48.748;9.278;2023-06-05T06:57:26;101403.02;;;17.15;53.67
11499;BME280;5806;48.748;9.278;2023-06-05T06:59:53;101404.48;;;17.32;53.92
11499;BME280;5806;48.748;9.278;2023-06-05T07:02:23;101408.38;;;17.36;53.49
11499;BME280;5806;48.748;9.278;2023-06-05T07:04:51;101401.03;;;17.57;53.63
11499;BME280;5806;48.748;9.278;2023-06-05T07:07:21;101402.41;;;17.57;53.85
11499;BME280;5806;48.748;9.278;2023-06-05T07:09:49;101403.01;;;17.71;53.45
11499;BME280;5806;48.748;9.278;2023-06-05T07:12:20;101397.69;;;17.55;52.35
11499;BME280;5806;48.748;9.278;2023-06-05T07:14:49;101397.48;;;17.71;52.87
11499;BME280;5806;48.748;9.278;2023-06-05T07:17:17;101396.36;;;17.75;52.12
11499;BME280;5806;48.748;9.278;2023-06-05T07:19:44;101393.05;;;17.68;52.03
11499;BME280;5806;48.748;9.278;2023-06-05T07:22:11;101394.13;;;17.69;52.30
11499;BME280;5806;48.748;9.278;2023-06-05T07:24:39;101383.91;;;17.67;52.09
11499;BME280;5806;48.748;9.278;2023-06-05T07:27:06;101388.32;;;17.63;52.45
11499;BME280;5806;48.748;9.278;2023-06-05T07:29:34;101391.41;;;17.77;53.26
11499;BME280;5806;48.748;9.278;2023-06-05T07:32:02;101391.41;;;17.79;53.06
11499;BME280;5806;48.748;9.278;2023-06-05T07:34:32;101380.34;;;17.84;53.23
11499;BME280;5806;48.748;9.278;2023-06-05T07:37:00;101380.64;;;17.88;52.39
11499;BME280;5806;48.748;9.278;2023-06-05T07:39:28;101384.52;;;17.92;52.54
11499;BME280;5806;48.748;9.278;2023-06-05T07:41:56;101383.95;;;18.00;51.39
11499;BME280;5806;48.748;9.278;2023-06-05T07:44:23;101390.35;;;18.13;51.30
11499;BME280;5806;48.748;9.278;2023-06-05T07:46:51;101386.74;;;18.05;50.56
11499;BME280;5806;48.748;9.278;2023-06-05T07:49:19;101387.02;;;18.03;52.18
11499;BME280;5806;48.748;9.278;2023-06-05T07:51:46;101382.56;;;18.00;51.79
11499;BME280;5806;48.748;9.278;2023-06-05T07:54:16;101378.43;;;18.12;52.14
11499;BME280;5806;48.748;9.278;2023-06-05T07:56:46;101379.00;;;18.17;50.71
11499;BME280;5806;48.748;9.278;2023-06-05T07:59:15;101377.88;;;18.28;50.85
11499;BME280;5806;48.748;9.278;2023-06-05T08:01:43;101369.59;;;18.33;50.47
11499;BME280;5806;48.748;9.278;2023-06-05T08:04:11;101373.75;;;18.40;51.28
11499;BME280;5806;48.748;9.278;2023-06-05T08:06:39;101377.91;;;18.53;51.25
11499;BME280;5806;48.748;9.278;2023-06-05T08:09:08;101382.64;;;18.42;50.50
11499;BME280;5806;48.748;9.278;2023-06-05T08:11:38;101372.09;;;18.54;50.17
11499;BME280;5806;48.748;9.278;2023-06-05T08:14:06;101371.77;;;18.73;50.79
11499;BME280;5806;48.748;9.278;2023-06-05T08:16:34;101363.73;;;18.69;52.55
11499;BME280;5806;48.748;9.278;2023-06-05T08:19:02;101363.16;;;18.77;50.94
11499;BME280;5806;48.748;9.278;2023-06-05T08:21:30;101359.53;;;18.89;49.45
11499;BME280;5806;48.748;9.278;2023-06-05T08:23:58;101352.59;;;18.97;50.29
11499;BME280;5806;48.748;9.278;2023-06-05T08:26:30;101352.05;;;18.82;49.76
11499;BME280;5806;48.748;9.278;2023-06-05T08:28:54;101346.78;;;18.91;49.31
11499;BME280;5806;48.748;9.278;2023-06-05T08:31:22;101345.05;;;19.10;50.24
11499;BME280;5806;48.748;9.278;2023-06-05T08:33:50;101338.36;;;19.16;50.44
11499;BME280;5806;48.748;9.278;2023-06-05T08:36:17;101325.58;;;19.30;49.35
11499;BME280;5806;48.748;9.278;2023-06-05T08:38:45;101325.58;;;19.30;49.35
11499;BME280;5806;48.748;9.278;2023-06-05T08:41:14;101330.53;;;19.33;48.54
11499;BME280;5806;48.748;9.278;2023-06-05T08:43:42;101331.36;;;19.36;48.55
11499;BME280;5806;48.748;9.278;2023-06-05T08:46:13;101336.27;;;19.49;47.60
11499;BME280;5806;48.748;9.278;2023-06-05T08:48:47;101323.55;;;19.84;46.33
11499;BME280;5806;48.748;9.278;2023-06-05T08:51:17;101324.56;;;19.96;46.24
11499;BME280;5806;48.748;9.278;2023-06-05T08:54:02;101317.78;;;19.78;46.59
11499;BME280;5806;48.748;9.278;2023-06-05T08:56:25;101321.05;;;19.85;46.81
11499;BME280;5806;48.748;9.278;2023-06-05T08:58:54;101316.09;;;19.82;47.62
11499;BME280;5806;48.748;9.278;2023-06-05T09:01:23;101314.98;;;19.81;48.06
11499;BME280;5806;48.748;9.278;2023-06-05T09:03:52;101311.98;;;20.11;45.63
11499;BME280;5806;48.748;9.278;2023-06-05T09:06:20;101309.14;;;20.21;46.91
11499;BME280;5806;48.748;9.278;2023-06-05T09:08:48;101309.14;;;20.21;46.91
11499;BME280;5806;48.748;9.278;2023-06-05T09:11:29;101299.80;;;20.38;45.19
11499;BME280;5806;48.748;9.278;2023-06-05T09:14:01;101299.80;;;20.38;45.19
11499;BME280;5806;48.748;9.278;2023-06-05T09:19:04;101292.58;;;20.63;44.21
11499;BME280;5806;48.748;9.278;2023-06-05T09:21:32;101303.02;;;20.73;43.05
11499;BME280;5806;48.748;9.278;2023-06-05T09:24:14;101301.20;;;21.11;41.85
11499;BME280;5806;48.748;9.278;2023-06-05T09:26:57;101301.20;;;21.11;41.85
11499;BME280;5806;48.748;9.278;2023-06-05T09:29:32;101290.58;;;21.15;42.07
11499;BME280;5806;48.748;9.278;2023-06-05T09:32:05;101286.33;;;21.20;42.25
11499;BME280;5806;48.748;9.278;2023-06-05T09:34:38;101283.27;;;21.40;41.85
11499;BME280;5806;48.748;9.278;2023-06-05T09:37:07;101290.09;;;21.48;42.19
11499;BME280;5806;48.748;9.278;2023-06-05T09:39:37;101279.34;;;21.60;42.11
11499;BME280;5806;48.748;9.278;2023-06-05T09:42:05;101266.56;;;21.77;41.02
11499;BME280;5806;48.748;9.278;2023-06-05T09:44:34;101274.88;;;21.80;40.95
11499;BME280;5806;48.748;9.278;2023-06-05T09:47:07;101254.30;;;21.94;35.77
11499;BME280;5806;48.748;9.278;2023-06-05T09:52:13;101271.44;;;21.67;40.50
11499;BME280;5806;48.748;9.278;2023-06-05T09:54:42;101272.68;;;21.58;37.68
11499;BME280;5806;48.748;9.278;2023-06-05T09:57:14;101268.56;;;21.74;37.10
11499;BME280;5806;48.748;9.278;2023-06-05T10:02:20;101272.84;;;22.01;38.04
11499;BME280;5806;48.748;9.278;2023-06-05T10:04:56;101273.23;;;21.95;38.93
11499;BME280;5806;48.748;9.278;2023-06-05T10:07:18;101263.78;;;22.25;37.99
11499;BME280;5806;48.748;9.278;2023-06-05T10:09:49;101267.67;;;22.11;37.15
11499;BME280;5806;48.748;9.278;2023-06-05T10:12:17;101264.56;;;22.28;36.65
11499;BME280;5806;48.748;9.278;2023-06-05T10:14:47;101264.63;;;21.78;37.63
11499;BME280;5806;48.748;9.278;2023-06-05T10:17:15;101269.52;;;21.99;36.15
11499;BME280;5806;48.748;9.278;2023-06-05T10:19:43;101266.48;;;21.98;38.17
11499;BME280;5806;48.748;9.278;2023-06-05T10:22:13;101260.69;;;22.27;36.95
11499;BME280;5806;48.748;9.278;2023-06-05T10:24:46;101261.39;;;22.19;34.06
11499;BME280;5806;48.748;9.278;2023-06-05T10:33:48;101252.90;;;22.10;33.09
11499;BME280;5806;48.748;9.278;2023-06-05T10:36:33;101254.91;;;22.53;31.96
11499;BME280;5806;48.748;9.278;2023-06-05T10:38:59;101251.77;;;22.57;29.39
11499;BME280;5806;48.748;9.278;2023-06-05T10:41:26;101251.87;;;22.52;31.32
11499;BME280;5806;48.748;9.278;2023-06-05T10:43:54;101251.39;;;22.47;30.96
11499;BME280;5806;48.748;9.278;2023-06-05T10:46:30;101250.85;;;22.88;30.83
11499;BME280;5806;48.748;9.278;2023-06-05T10:49:16;101242.98;;;22.63;30.99
11499;BME280;5806;48.748;9.278;2023-06-05T10:51:47;101245.72;;;22.93;31.54
11499;BME280;5806;48.748;9.278;2023-06-05T10:57:01;101248.62;;;22.74;31.12
11499;BME280;5806;48.748;9.278;2023-06-05T10:59:32;101248.79;;;22.80;32.58
11499;BME280;5806;48.748;9.278;2023-06-05T11:10:15;101236.68;;;22.85;30.37
11499;BME280;5806;48.748;9.278;2023-06-05T11:12:54;101224.03;;;23.14;30.46
11499;BME280;5806;48.748;9.278;2023-06-05T11:15:41;101223.84;;;23.11;31.21
11499;BME280;5806;48.748;9.278;2023-06-05T11:18:27;101220.37;;;23.41;30.32
11499;BME280;5806;48.748;9.278;2023-06-05T11:20:56;101219.53;;;23.29;31.85
11499;BME280;5806;48.748;9.278;2023-06-05T11:23:24;101220.63;;;23.31;30.56
11499;BME280;5806;48.748;9.278;2023-06-05T11:25:56;101218.95;;;23.16;30.73
11499;BME280;5806;48.748;9.278;2023-06-05T11:28:42;101224.03;;;23.14;31.74
11499;BME280;5806;48.748;9.278;2023-06-05T11:31:07;101215.91;;;23.29;29.14
11499;BME280;5806;48.748;9.278;2023-06-05T11:33:34;101221.68;;;23.21;29.76
11499;BME280;5806;48.748;9.278;2023-06-05T11:36:05;101208.68;;;23.28;30.78
11499;BME280;5806;48.748;9.278;2023-06-05T11:38:34;101209.24;;;23.27;29.82
11499;BME280;5806;48.748;9.278;2023-06-05T11:41:06;101209.48;;;23.28;29.57
11499;BME280;5806;48.748;9.278;2023-06-05T11:43:42;101202.87;;;23.60;29.01
11499;BME280;5806;48.748;9.278;2023-06-05T11:46:10;101203.57;;;23.55;30.15
11499;BME280;5806;48.748;9.278;2023-06-05T11:48:44;101206.34;;;23.43;30.26
11499;BME280;5806;48.748;9.278;2023-06-05T11:51:11;101202.59;;;23.37;29.32
11499;BME280;5806;48.748;9.278;2023-06-05T11:53:44;101202.79;;;23.16;28.37
11499;BME280;5806;48.748;9.278;2023-06-05T11:56:14;101198.23;;;23.33;28.49
11499;BME280;5806;48.748;9.278;2023-06-05T11:58:43;101196.88;;;23.42;30.32
11499;BME280;5806;48.748;9.278;2023-06-05T12:01:18;101199.63;;;23.56;28.69
11499;BME280;5806;48.748;9.278;2023-06-05T12:04:05;101197.78;;;23.40;29.26
11499;BME280;5806;48.748;9.278;2023-06-05T12:06:42;101190.88;;;23.38;29.05
11499;BME280;5806;48.748;9.278;2023-06-05T12:09:11;101190.42;;;23.66;30.41
11499;BME280;5806;48.748;9.278;2023-06-05T12:11:41;101188.08;;;23.71;30.84
11499;BME280;5806;48.748;9.278;2023-06-05T12:14:28;101186.79;;;23.77;29.59
11499;BME280;5806;48.748;9.278;2023-06-05T12:16:42;101185.14;;;23.65;29.50
11499;BME280;5806;48.748;9.278;2023-06-05T12:19:18;101174.94;;;23.93;28.92
11499;BME280;5806;48.748;9.278;2023-06-05T12:21:47;101178.14;;;24.09;30.01
11499;BME280;5806;48.748;9.278;2023-06-05T12:24:24;101179.73;;;23.90;29.22
11499;BME280;5806;48.748;9.278;2023-06-05T12:26:54;101177.58;;;24.09;29.28
11499;BME280;5806;48.748;9.278;2023-06-05T12:29:32;101172.19;;;23.69;28.40
11499;BME280;5806;48.748;9.278;2023-06-05T12:32:01;101176.39;;;23.69;30.04
11499;BME280;5806;48.748;9.278;2023-06-05T12:34:39;101180.32;;;23.57;27.40
11499;BME280;5806;48.748;9.278;2023-06-05T12:37:08;101171.00;;;23.72;28.36
11499;BME280;5806;48.748;9.278;2023-06-05T12:39:35;101174.88;;;23.63;28.64
11499;BME280;5806;48.748;9.278;2023-06-05T12:42:03;101167.52;;;23.78;28.33
11499;BME280;5806;48.748;9.278;2023-06-05T12:44:31;101163.43;;;23.73;28.84
11499;BME280;5806;48.748;9.278;2023-06-05T12:46:59;101155.64;;;23.72;29.75
11499;BME280;5806;48.748;9.278;2023-06-05T12:49:26;101160.24;;;23.88;28.55
11499;BME280;5806;48.748;9.278;2023-06-05T12:51:54;101161.55;;;23.71;29.25
11499;BME280;5806;48.748;9.278;2023-06-05T12:54:23;101155.64;;;23.72;28.48
11499;BME280;5806;48.748;9.278;2023-06-05T12:56:50;101149.41;;;23.97;29.04
11499;BME280;5806;48.748;9.278;2023-06-05T12:59:18;101150.41;;;24.01;29.02
11499;BME280;5806;48.748;9.278;2023-06-05T13:01:46;101152.41;;;24.20;29.81
11499;BME280;5806;48.748;9.278;2023-06-05T13:04:13;101143.87;;;24.06;29.65
11499;BME280;5806;48.748;9.278;2023-06-05T13:06:41;101147.78;;;24.05;30.84
11499;BME280;5806;48.748;9.278;2023-06-05T13:09:09;101148.45;;;24.02;30.57
11499;BME280;5806;48.748;9.278;2023-06-05T13:11:36;101137.49;;;24.14;30.30
11499;BME280;5806;48.748;9.278;2023-06-05T13:14:04;101135.73;;;24.07;31.30
11499;BME280;5806;48.748;9.278;2023-06-05T13:16:32;101142.17;;;23.96;30.93
11499;BME280;5806;48.748;9.278;2023-06-05T13:18:59;101138.89;;;24.14;31.60
11499;BME280;5806;48.748;9.278;2023-06-05T13:21:27;101139.72;;;24.03;31.35
11499;BME280;5806;48.748;9.278;2023-06-05T13:23:54;101138.83;;;24.25;32.07
11499;BME280;5806;48.748;9.278;2023-06-05T13:26:21;101142.98;;;23.97;29.22
11499;BME280;5806;48.748;9.278;2023-06-05T13:28:49;101131.78;;;24.08;28.71
11499;BME280;5806;48.748;9.278;2023-06-05T13:31:16;101127.23;;;23.90;29.44
11499;BME280;5806;48.748;9.278;2023-06-05T13:33:45;101125.26;;;24.01;31.01
11499;BME280;5806;48.748;9.278;2023-06-05T13:36:12;101120.20;;;24.12;30.50